メインページ
METAR-TAF:

METAR-TAF

空港 :

チェンナイ, インド

チェンナイ国際空港

緯度: 13-00N, 経度: 080-11E, 海抜: 10m

現時点の気象観測

当レポートは14分前の12:00(UTC)に作成
東/北東の風 10kt
気温 29°C
湿度 58%
気圧 1012 hPa
視程: 7000m
高度2000ftの雲はほとんどない

METAR: VOMM 241200Z 07010KT 7000 FEW020 29/20 Q1012 NOSIG

時間: 17:44 (12:14 UTC)

予報

当レポートは1時間14分前の11:00(UTC)に作成
予報は24日の 12時(UTC)から 25日の 18時(UTC)まで有効
東/北東の風 10kt
視程: 6000m
高度2000ftの雲はほとんどない
24日の 21時(UTC)から 24日の 22時(UTC)まで徐々に
西/南西の風 5kt
視程: 5000m
25日の 00時(UTC)から 25日の 01時(UTC)まで徐々に
の風 kt
視程: 3000m
25日の 03時(UTC)から 25日の 04時(UTC)まで徐々に
視程: 5000m
煙霧
25日の 05時(UTC)から 25日の 06時(UTC)まで徐々に
東/北東の風 10kt
視程: 6000m

TAF: VOMM 241100Z 2412/2518 07010KT 6000 FEW020 BECMG 2421/2422 25005KT 5000 BR BECMG 2500/2501 00000KT 3000 BR BECMG 2503/2504 5000 HZ BECMG 2505/2506 07010KT 6000

4,000以上の空港の気象観測と天気予報(METAR報とTAF報)

利用可能な観測所は地図上に黄色い丸と赤い丸で示す。

丸の上にカーソルを重ねると観測所名を参照できる。

次にクリックすると気象観測と天気予報を参照できる。

マップの切り替え:黒色「×」印の緑ボタンをクリックして拡大、「-」印の緑ボタンをクリックして縮小、緑色の三角印をクリックして隣りの地図に切り替え


METAR-TAF: